Ichtegem, Belgium
Current Conditions -  °F | °C
As of 5:20 AM on Tuesday 21 Oct 2014 (Local Time) from EBOS Reporting Station
Light Rain Light Rain  
Wind Chill: 54°   Ceiling: 3500
Heat Index: 54°   Visibility: 6mi
Dew Point: 50°   Wind: 17mph
Humidity: 88%   Direction: 200°SSW
Pressure: 29.8"   Gusts: NA
Location:  51.1°N, 3.02°E
Report Text: EBOS 210320Z 20015KT 9999 -RA FEW020 BKN035 12/10 Q1009 NOSIG
Loading
Personal Weather Stations






























Interactive Weather Map
Tropical Storm Tracking
New forecast layout! Learn more

10-Day Weather Forecast

Advertisements
Track Severe Weather on mobile